Terminal Aerodrome Forecast
Issued by NWS

Current Version | Previous Version | Text Only | Print | Product List | Glossary On
Versions: 1 2 3 4 5 6 7 8 9 10 11 12 13 14 15 16 17 18 19 20 21 22 23 24 25 26 27
000
FTUS46 KLOX 202300 RRA
TAFLAX
TAF
KLAX 202350Z 2100/2206 25013KT P6SM SKC
     FM210300 26007KT P6SM SCT030
     FM210500 27005KT P6SM BKN020
     FM210800 VRB03KT P6SM OVC015
     FM211700 25007KT P6SM BKN020
     FM212000 26012KT P6SM SCT025
     FM220400 26007KT P6SM BKN012=

USA.gov is the U.S. government's official web portal to all federal, state and local government web resources and services.